sensor_id;sensor_type;location;lat;lon;timestamp;pressure;altitude;pressure_sealevel;temperature;humidity
41254;BME280;26987;59.928;30.306;2023-04-06T00:01:49;102710.63;;;1.77;100.00
41254;BME280;26987;59.928;30.306;2023-04-06T00:04:17;102713.84;;;1.82;100.00
41254;BME280;26987;59.928;30.306;2023-04-06T00:06:45;102710.53;;;1.79;100.00
41254;BME280;26987;59.928;30.306;2023-04-06T00:09:13;102720.06;;;1.81;100.00
41254;BME280;26987;59.928;30.306;2023-04-06T00:11:43;102714.66;;;1.83;100.00
41254;BME280;26987;59.928;30.306;2023-04-06T00:14:11;102718.47;;;1.79;100.00
41254;BME280;26987;59.928;30.306;2023-04-06T00:16:40;102653.16;;;1.38;100.00
41254;BME280;26987;59.928;30.306;2023-04-06T00:19:09;102716.88;;;1.76;100.00
41254;BME280;26987;59.928;30.306;2023-04-06T00:21:37;102713.28;;;1.77;100.00
41254;BME280;26987;59.928;30.306;2023-04-06T00:24:06;102721.13;;;1.79;100.00
41254;BME280;26987;59.928;30.306;2023-04-06T00:26:34;102716.78;;;1.78;100.00
41254;BME280;26987;59.928;30.306;2023-04-06T00:29:03;102721.22;;;1.77;100.00
41254;BME280;26987;59.928;30.306;2023-04-06T00:31:31;102711.78;;;1.73;100.00
41254;BME280;26987;59.928;30.306;2023-04-06T00:33:59;102707.44;;;1.72;100.00
41254;BME280;26987;59.928;30.306;2023-04-06T00:36:27;102711.59;;;1.76;100.00
41254;BME280;26987;59.928;30.306;2023-04-06T00:38:55;102700.66;;;1.68;100.00
41254;BME280;26987;59.928;30.306;2023-04-06T00:41:23;102710.16;;;1.70;100.00
41254;BME280;26987;59.928;30.306;2023-04-06T00:43:51;102702.56;;;1.66;100.00
41254;BME280;26987;59.928;30.306;2023-04-06T00:46:20;102690.66;;;1.58;100.00
41254;BME280;26987;59.928;30.306;2023-04-06T00:48:48;102704.44;;;1.63;100.00
41254;BME280;26987;59.928;30.306;2023-04-06T00:51:16;102708.25;;;1.59;100.00
41254;BME280;26987;59.928;30.306;2023-04-06T00:53:44;102710.97;;;1.58;100.00
41254;BME280;26987;59.928;30.306;2023-04-06T00:56:13;102713.91;;;1.53;100.00
41254;BME280;26987;59.928;30.306;2023-04-06T00:58:51;102719.41;;;1.50;100.00
41254;BME280;26987;59.928;30.306;2023-04-06T01:01:20;102721.47;;;1.45;100.00
41254;BME280;26987;59.928;30.306;2023-04-06T01:03:51;102716.38;;;1.42;100.00
41254;BME280;26987;59.928;30.306;2023-04-06T01:06:20;102717.91;;;1.46;100.00
41254;BME280;26987;59.928;30.306;2023-04-06T01:08:58;102723.19;;;1.46;100.00
41254;BME280;26987;59.928;30.306;2023-04-06T01:11:27;102712.81;;;1.43;100.00
41254;BME280;26987;59.928;30.306;2023-04-06T01:13:55;102719.78;;;1.44;100.00
41254;BME280;26987;59.928;30.306;2023-04-06T01:16:31;102725.25;;;1.41;100.00
41254;BME280;26987;59.928;30.306;2023-04-06T01:19:08;102723.56;;;1.40;100.00
41254;BME280;26987;59.928;30.306;2023-04-06T01:21:38;102689.72;;;1.17;100.00
41254;BME280;26987;59.928;30.306;2023-04-06T01:24:17;102723.56;;;1.40;100.00
41254;BME280;26987;59.928;30.306;2023-04-06T01:27:12;102727.19;;;1.38;100.00
41254;BME280;26987;59.928;30.306;2023-04-06T01:30:06;102732.25;;;1.42;100.00
41254;BME280;26987;59.928;30.306;2023-04-06T01:33:00;102732.25;;;1.42;100.00
41254;BME280;26987;59.928;30.306;2023-04-06T01:35:56;102732.25;;;1.42;100.00
41254;BME280;26987;59.928;30.306;2023-04-06T01:38:24;102730.75;;;1.37;100.00
41254;BME280;26987;59.928;30.306;2023-04-06T01:40:54;102730.09;;;1.34;100.00
41254;BME280;26987;59.928;30.306;2023-04-06T01:43:24;102736.41;;;1.31;100.00
41254;BME280;26987;59.928;30.306;2023-04-06T01:46:05;102727.09;;;1.40;100.00
41254;BME280;26987;59.928;30.306;2023-04-06T01:48:36;102734.78;;;1.43;100.00
41254;BME280;26987;59.928;30.306;2023-04-06T01:51:17;102696.94;;;1.28;100.00
41254;BME280;26987;59.928;30.306;2023-04-06T01:53:51;102729.88;;;1.51;100.00
41254;BME280;26987;59.928;30.306;2023-04-06T01:56:24;102730.66;;;1.54;100.00
41254;BME280;26987;59.928;30.306;2023-04-06T01:59:02;102728.94;;;1.53;100.00
41254;BME280;26987;59.928;30.306;2023-04-06T02:01:37;102738.44;;;1.55;100.00
41254;BME280;26987;59.928;30.306;2023-04-06T02:04:05;102734.69;;;1.59;100.00
41254;BME280;26987;59.928;30.306;2023-04-06T02:06:33;102737.22;;;1.61;100.00
41254;BME280;26987;59.928;30.306;2023-04-06T02:09:03;102737.13;;;1.62;100.00
41254;BME280;26987;59.928;30.306;2023-04-06T02:11:32;102741.56;;;1.62;100.00
41254;BME280;26987;59.928;30.306;2023-04-06T02:14:00;102732.78;;;1.61;100.00
41254;BME280;26987;59.928;30.306;2023-04-06T02:16:32;102734.41;;;1.64;100.00
41254;BME280;26987;59.928;30.306;2023-04-06T02:19:00;102735.72;;;1.57;100.00
41254;BME280;26987;59.928;30.306;2023-04-06T02:21:28;102728.28;;;1.49;100.00
41254;BME280;26987;59.928;30.306;2023-04-06T02:23:56;102725.66;;;1.49;100.00
41254;BME280;26987;59.928;30.306;2023-04-06T02:26:24;102728.69;;;1.43;100.00
41254;BME280;26987;59.928;30.306;2023-04-06T02:28:54;102734.50;;;1.48;100.00
41254;BME280;26987;59.928;30.306;2023-04-06T02:31:22;102750.38;;;1.48;100.00
41254;BME280;26987;59.928;30.306;2023-04-06T02:33:52;102738.28;;;1.44;100.00
41254;BME280;26987;59.928;30.306;2023-04-06T02:36:20;102739.25;;;1.43;100.00
41254;BME280;26987;59.928;30.306;2023-04-06T02:38:48;102742.28;;;1.36;100.00
41254;BME280;26987;59.928;30.306;2023-04-06T02:41:17;102755.50;;;1.36;100.00
41254;BME280;26987;59.928;30.306;2023-04-06T02:43:45;102752.28;;;1.31;100.00
41254;BME280;26987;59.928;30.306;2023-04-06T02:46:22;102752.47;;;1.28;100.00
41254;BME280;26987;59.928;30.306;2023-04-06T02:48:50;102762.31;;;1.26;100.00
41254;BME280;26987;59.928;30.306;2023-04-06T02:51:18;102758.25;;;1.20;100.00
41254;BME280;26987;59.928;30.306;2023-04-06T02:53:53;102764.00;;;1.27;100.00
41254;BME280;26987;59.928;30.306;2023-04-06T02:56:21;102767.50;;;1.28;100.00
41254;BME280;26987;59.928;30.306;2023-04-06T02:58:51;102762.94;;;1.30;100.00
41254;BME280;26987;59.928;30.306;2023-04-06T03:01:23;102770.88;;;1.30;100.00
41254;BME280;26987;59.928;30.306;2023-04-06T03:03:57;102764.56;;;1.32;100.00
41254;BME280;26987;59.928;30.306;2023-04-06T03:06:27;102766.81;;;1.24;100.00
41254;BME280;26987;59.928;30.306;2023-04-06T03:09:01;102762.09;;;1.15;100.00
41254;BME280;26987;59.928;30.306;2023-04-06T03:11:30;102770.97;;;1.13;100.00
41254;BME280;26987;59.928;30.306;2023-04-06T03:13:58;102769.19;;;1.14;100.00
41254;BME280;26987;59.928;30.306;2023-04-06T03:16:27;102771.47;;;1.20;100.00
41254;BME280;26987;59.928;30.306;2023-04-06T03:18:55;102768.63;;;1.23;100.00
41254;BME280;26987;59.928;30.306;2023-04-06T03:21:23;102767.88;;;1.21;100.00
41254;BME280;26987;59.928;30.306;2023-04-06T03:23:53;102765.78;;;1.12;100.00
41254;BME280;26987;59.928;30.306;2023-04-06T03:26:21;102769.66;;;1.06;100.00
41254;BME280;26987;59.928;30.306;2023-04-06T03:28:51;102769.16;;;0.99;100.00
41254;BME280;26987;59.928;30.306;2023-04-06T03:31:23;102763.41;;;0.93;100.00
41254;BME280;26987;59.928;30.306;2023-04-06T03:34:00;102680.81;;;0.45;100.00
41254;BME280;26987;59.928;30.306;2023-04-06T03:36:31;102739.66;;;0.78;100.00
41254;BME280;26987;59.928;30.306;2023-04-06T03:39:00;102779.56;;;1.03;100.00
41254;BME280;26987;59.928;30.306;2023-04-06T03:41:31;102775.69;;;0.94;100.00
41254;BME280;26987;59.928;30.306;2023-04-06T03:44:05;102777.09;;;0.85;100.00
41254;BME280;26987;59.928;30.306;2023-04-06T03:46:33;102768.50;;;0.81;100.00
41254;BME280;26987;59.928;30.306;2023-04-06T03:49:03;102776.03;;;0.87;100.00
41254;BME280;26987;59.928;30.306;2023-04-06T03:51:31;102785.59;;;0.90;100.00
41254;BME280;26987;59.928;30.306;2023-04-06T03:53:59;102783.69;;;0.92;100.00
41254;BME280;26987;59.928;30.306;2023-04-06T03:56:27;102788.34;;;0.88;100.00
41254;BME280;26987;59.928;30.306;2023-04-06T03:58:55;102741.00;;;0.55;100.00
41254;BME280;26987;59.928;30.306;2023-04-06T04:01:23;102789.34;;;0.86;100.00
41254;BME280;26987;59.928;30.306;2023-04-06T04:03:51;102776.44;;;0.81;100.00
41254;BME280;26987;59.928;30.306;2023-04-06T04:06:20;102796.25;;;0.88;100.00
41254;BME280;26987;59.928;30.306;2023-04-06T04:08:48;102793.03;;;0.83;100.00
41254;BME280;26987;59.928;30.306;2023-04-06T04:11:16;102790.47;;;0.82;100.00
41254;BME280;26987;59.928;30.306;2023-04-06T04:13:48;102804.03;;;0.75;100.00
41254;BME280;26987;59.928;30.306;2023-04-06T04:16:16;102796.38;;;0.71;100.00
41254;BME280;26987;59.928;30.306;2023-04-06T04:18:44;102804.53;;;0.68;100.00
41254;BME280;26987;59.928;30.306;2023-04-06T04:21:13;102799.84;;;0.57;100.00
41254;BME280;26987;59.928;30.306;2023-04-06T04:23:43;102804.09;;;0.59;100.00
41254;BME280;26987;59.928;30.306;2023-04-06T04:26:11;102797.91;;;0.44;100.00
41254;BME280;26987;59.928;30.306;2023-04-06T04:28:39;102811.63;;;0.51;100.00
41254;BME280;26987;59.928;30.306;2023-04-06T04:31:08;102814.38;;;0.49;100.00
41254;BME280;26987;59.928;30.306;2023-04-06T04:33:36;102817.00;;;0.49;100.00
41254;BME280;26987;59.928;30.306;2023-04-06T04:36:10;102817.91;;;0.48;100.00
41254;BME280;26987;59.928;30.306;2023-04-06T04:38:43;102813.69;;;0.46;100.00
41254;BME280;26987;59.928;30.306;2023-04-06T04:41:11;102797.63;;;0.34;100.00
41254;BME280;26987;59.928;30.306;2023-04-06T04:43:42;102823.97;;;0.50;100.00
41254;BME280;26987;59.928;30.306;2023-04-06T04:46:12;102813.69;;;0.46;100.00
41254;BME280;26987;59.928;30.306;2023-04-06T04:48:42;102821.59;;;0.46;100.00
41254;BME280;26987;59.928;30.306;2023-04-06T04:51:10;102817.25;;;0.45;100.00
41254;BME280;26987;59.928;30.306;2023-04-06T04:53:51;102832.31;;;0.43;100.00
41254;BME280;26987;59.928;30.306;2023-04-06T04:56:24;102803.72;;;0.35;100.00
41254;BME280;26987;59.928;30.306;2023-04-06T04:59:01;102814.97;;;0.39;100.00
41254;BME280;26987;59.928;30.306;2023-04-06T05:01:32;102826.88;;;0.46;100.00
41254;BME280;26987;59.928;30.306;2023-04-06T05:04:01;102828.22;;;0.53;100.00
41254;BME280;26987;59.928;30.306;2023-04-06T05:06:29;102824.19;;;0.62;100.00
41254;BME280;26987;59.928;30.306;2023-04-06T05:08:59;102792.91;;;0.40;100.00
41254;BME280;26987;59.928;30.306;2023-04-06T05:11:30;102830.94;;;0.68;100.00
41254;BME280;26987;59.928;30.306;2023-04-06T05:14:00;102825.66;;;0.68;100.00
41254;BME280;26987;59.928;30.306;2023-04-06T05:16:29;102825.72;;;0.66;100.00
41254;BME280;26987;59.928;30.306;2023-04-06T05:18:57;102828.47;;;0.65;100.00
41254;BME280;26987;59.928;30.306;2023-04-06T05:21:31;102828.47;;;0.65;100.00
41254;BME280;26987;59.928;30.306;2023-04-06T05:24:07;102828.63;;;0.61;100.00
41254;BME280;26987;59.928;30.306;2023-04-06T05:26:37;102811.81;;;0.48;100.00
41254;BME280;26987;59.928;30.306;2023-04-06T05:29:11;102832.75;;;0.51;100.00
41254;BME280;26987;59.928;30.306;2023-04-06T05:31:40;102831.72;;;0.54;100.00
41254;BME280;26987;59.928;30.306;2023-04-06T05:34:09;102823.53;;;0.42;100.00
41254;BME280;26987;59.928;30.306;2023-04-06T05:36:39;102820.06;;;0.42;100.00
41254;BME280;26987;59.928;30.306;2023-04-06T05:39:18;102834.44;;;0.52;100.00
41254;BME280;26987;59.928;30.306;2023-04-06T05:41:50;102801.19;;;0.33;100.00
41254;BME280;26987;59.928;30.306;2023-04-06T05:44:29;102828.81;;;0.58;100.00
41254;BME280;26987;59.928;30.306;2023-04-06T05:47:08;102833.91;;;0.61;100.00
41254;BME280;26987;59.928;30.306;2023-04-06T05:49:38;102841.84;;;0.61;100.00
41254;BME280;26987;59.928;30.306;2023-04-06T05:52:11;102834.84;;;0.60;100.00
41254;BME280;26987;59.928;30.306;2023-04-06T05:54:45;102836.56;;;0.61;100.00
41254;BME280;26987;59.928;30.306;2023-04-06T05:57:14;102835.00;;;0.57;100.00
41254;BME280;26987;59.928;30.306;2023-04-06T05:59:42;102829.72;;;0.57;100.00
41254;BME280;26987;59.928;30.306;2023-04-06T06:02:12;102840.97;;;0.61;100.00
41254;BME280;26987;59.928;30.306;2023-04-06T06:04:44;102835.25;;;0.69;100.00
41254;BME280;26987;59.928;30.306;2023-04-06T06:07:14;102795.78;;;0.51;100.00
41254;BME280;26987;59.928;30.306;2023-04-06T06:09:49;102797.13;;;0.58;100.00
41254;BME280;26987;59.928;30.306;2023-04-06T06:12:25;102829.25;;;0.81;100.00
41254;BME280;26987;59.928;30.306;2023-04-06T06:14:54;102835.03;;;0.88;100.00
41254;BME280;26987;59.928;30.306;2023-04-06T06:17:24;102838.06;;;0.96;100.00
41254;BME280;26987;59.928;30.306;2023-04-06T06:19:55;102841.28;;;1.02;100.00
41254;BME280;26987;59.928;30.306;2023-04-06T06:22:23;102837.59;;;1.04;100.00
41254;BME280;26987;59.928;30.306;2023-04-06T06:24:53;102844.69;;;1.04;100.00
41254;BME280;26987;59.928;30.306;2023-04-06T06:27:21;102847.59;;;0.99;100.00
41254;BME280;26987;59.928;30.306;2023-04-06T06:29:49;102844.81;;;0.86;100.00
41254;BME280;26987;59.928;30.306;2023-04-06T06:32:18;102846.44;;;0.88;100.00
41254;BME280;26987;59.928;30.306;2023-04-06T06:34:50;102854.38;;;0.88;100.00
41254;BME280;26987;59.928;30.306;2023-04-06T06:37:19;102842.75;;;0.91;100.00
41254;BME280;26987;59.928;30.306;2023-04-06T06:39:48;102850.44;;;0.96;100.00
41254;BME280;26987;59.928;30.306;2023-04-06T06:42:18;102852.19;;;0.95;100.00
41254;BME280;26987;59.928;30.306;2023-04-06T06:45:07;102856.75;;;0.93;100.00
41254;BME280;26987;59.928;30.306;2023-04-06T06:47:35;102849.47;;;0.97;100.00
41254;BME280;26987;59.928;30.306;2023-04-06T06:50:04;102859.31;;;1.09;100.00
41254;BME280;26987;59.928;30.306;2023-04-06T06:52:32;102851.94;;;1.15;100.00
41254;BME280;26987;59.928;30.306;2023-04-06T06:55:00;102849.91;;;1.20;100.00
41254;BME280;26987;59.928;30.306;2023-04-06T06:57:30;102859.91;;;1.29;100.00
41254;BME280;26987;59.928;30.306;2023-04-06T06:59:58;102850.47;;;1.25;100.00
41254;BME280;26987;59.928;30.306;2023-04-06T07:02:27;102861.59;;;1.30;100.00
41254;BME280;26987;59.928;30.306;2023-04-06T07:04:55;102862.75;;;1.26;100.00
41254;BME280;26987;59.928;30.306;2023-04-06T07:07:23;102863.03;;;1.21;100.00
41254;BME280;26987;59.928;30.306;2023-04-06T07:09:51;102869.91;;;1.24;100.00
41254;BME280;26987;59.928;30.306;2023-04-06T07:12:19;102860.19;;;1.24;100.00
41254;BME280;26987;59.928;30.306;2023-04-06T07:14:49;102864.34;;;1.29;100.00
41254;BME280;26987;59.928;30.306;2023-04-06T07:17:18;102869.63;;;1.29;100.00
41254;BME280;26987;59.928;30.306;2023-04-06T07:19:46;102864.34;;;1.29;100.00
41254;BME280;26987;59.928;30.306;2023-04-06T07:22:14;102861.25;;;1.22;100.00
41254;BME280;26987;59.928;30.306;2023-04-06T07:24:42;102861.78;;;1.27;100.00
41254;BME280;26987;59.928;30.306;2023-04-06T07:27:10;102861.91;;;1.40;100.00
41254;BME280;26987;59.928;30.306;2023-04-06T07:29:38;102868.63;;;1.46;100.00
41254;BME280;26987;59.928;30.306;2023-04-06T07:32:08;102878.06;;;1.50;100.00
41254;BME280;26987;59.928;30.306;2023-04-06T07:34:36;102829.34;;;1.25;100.00
41254;BME280;26987;59.928;30.306;2023-04-06T07:37:04;102872.50;;;1.40;100.00
41254;BME280;26987;59.928;30.306;2023-04-06T07:39:33;102877.28;;;1.33;100.00
41254;BME280;26987;59.928;30.306;2023-04-06T07:42:01;102873.13;;;1.29;100.00
41254;BME280;26987;59.928;30.306;2023-04-06T07:44:29;102868.84;;;1.26;100.00
41254;BME280;26987;59.928;30.306;2023-04-06T07:46:57;102884.75;;;1.41;100.00
41254;BME280;26987;59.928;30.306;2023-04-06T07:49:27;102872.09;;;1.46;100.00
41254;BME280;26987;59.928;30.306;2023-04-06T07:51:56;102876.19;;;1.52;100.00
41254;BME280;26987;59.928;30.306;2023-04-06T07:54:24;102873.22;;;1.42;100.00
41254;BME280;26987;59.928;30.306;2023-04-06T07:56:52;102879.56;;;1.54;100.00
41254;BME280;26987;59.928;30.306;2023-04-06T07:59:20;102878.81;;;1.67;100.00
41254;BME280;26987;59.928;30.306;2023-04-06T08:01:48;102885.22;;;1.77;100.00
41254;BME280;26987;59.928;30.306;2023-04-06T08:04:16;102885.91;;;1.81;100.00
41254;BME280;26987;59.928;30.306;2023-04-06T08:06:46;102884.66;;;1.86;100.00
41254;BME280;26987;59.928;30.306;2023-04-06T08:09:14;102898.53;;;1.90;100.00
41254;BME280;26987;59.928;30.306;2023-04-06T08:11:42;102891.47;;;1.91;100.00
41254;BME280;26987;59.928;30.306;2023-04-06T08:14:11;102883.88;;;1.99;100.00
41254;BME280;26987;59.928;30.306;2023-04-06T08:16:39;102887.28;;;2.01;100.00
41254;BME280;26987;59.928;30.306;2023-04-06T08:19:07;102886.03;;;2.07;100.00
41254;BME280;26987;59.928;30.306;2023-04-06T08:21:35;102886.13;;;2.20;100.00
41254;BME280;26987;59.928;30.306;2023-04-06T08:24:05;102893.09;;;2.21;100.00
41254;BME280;26987;59.928;30.306;2023-04-06T08:26:33;102882.91;;;2.14;100.00
41254;BME280;26987;59.928;30.306;2023-04-06T08:29:01;102890.41;;;2.35;100.00
41254;BME280;26987;59.928;30.306;2023-04-06T08:31:30;102896.41;;;2.52;100.00
41254;BME280;26987;59.928;30.306;2023-04-06T08:33:58;102893.94;;;2.63;100.00
41254;BME280;26987;59.928;30.306;2023-04-06T08:36:26;102890.31;;;2.64;100.00
41254;BME280;26987;59.928;30.306;2023-04-06T08:38:54;102902.75;;;2.77;100.00
41254;BME280;26987;59.928;30.306;2023-04-06T08:41:23;102904.97;;;2.83;100.00
41254;BME280;26987;59.928;30.306;2023-04-06T08:43:57;102903.31;;;2.95;100.00
41254;BME280;26987;59.928;30.306;2023-04-06T08:46:25;102908.00;;;2.92;100.00
41254;BME280;26987;59.928;30.306;2023-04-06T08:48:57;102871.69;;;2.79;100.00
41254;BME280;26987;59.928;30.306;2023-04-06T08:51:26;102906.22;;;3.18;99.25
41254;BME280;26987;59.928;30.306;2023-04-06T08:53:55;102901.88;;;3.30;99.26
41254;BME280;26987;59.928;30.306;2023-04-06T08:56:26;102894.69;;;3.32;98.46
41254;BME280;26987;59.928;30.306;2023-04-06T08:58:55;102910.38;;;3.22;98.28
41254;BME280;26987;59.928;30.306;2023-04-06T09:01:26;102846.59;;;2.85;98.25
41254;BME280;26987;59.928;30.306;2023-04-06T09:03:56;102896.69;;;3.28;98.15
41254;BME280;26987;59.928;30.306;2023-04-06T09:06:25;102917.25;;;3.51;97.48
41254;BME280;26987;59.928;30.306;2023-04-06T09:08:54;102913.88;;;3.49;96.56
41254;BME280;26987;59.928;30.306;2023-04-06T09:11:23;102913.25;;;3.45;96.55
41254;BME280;26987;59.928;30.306;2023-04-06T09:13:53;102906.78;;;3.49;96.12
41254;BME280;26987;59.928;30.306;2023-04-06T09:16:22;102904.75;;;3.53;96.60
41254;BME280;26987;59.928;30.306;2023-04-06T09:18:50;102908.06;;;3.57;96.03
41254;BME280;26987;59.928;30.306;2023-04-06T09:21:19;102905.59;;;3.66;96.30
41254;BME280;26987;59.928;30.306;2023-04-06T09:23:57;102905.06;;;3.74;95.87
41254;BME280;26987;59.928;30.306;2023-04-06T09:26:25;102907.41;;;3.53;95.35
41254;BME280;26987;59.928;30.306;2023-04-06T09:28:57;102900.50;;;3.37;96.63
41254;BME280;26987;59.928;30.306;2023-04-06T09:31:27;102909.94;;;3.28;96.94
41254;BME280;26987;59.928;30.306;2023-04-06T09:33:56;102915.03;;;3.19;97.35
41254;BME280;26987;59.928;30.306;2023-04-06T09:36:31;102911.75;;;3.28;97.88
41254;BME280;26987;59.928;30.306;2023-04-06T09:39:01;102913.13;;;3.21;97.71
41254;BME280;26987;59.928;30.306;2023-04-06T09:41:30;102908.03;;;3.18;97.89
41254;BME280;26987;59.928;30.306;2023-04-06T09:44:04;102863.91;;;2.90;97.88
41254;BME280;26987;59.928;30.306;2023-04-06T09:46:33;102919.06;;;3.11;97.50
41254;BME280;26987;59.928;30.306;2023-04-06T09:49:02;102916.25;;;3.00;97.98
41254;BME280;26987;59.928;30.306;2023-04-06T09:51:31;102898.47;;;3.02;98.78
41254;BME280;26987;59.928;30.306;2023-04-06T09:54:01;102920.34;;;3.19;96.96
41254;BME280;26987;59.928;30.306;2023-04-06T09:56:36;102909.09;;;3.28;97.90
41254;BME280;26987;59.928;30.306;2023-04-06T09:59:09;102905.06;;;3.35;97.91
41254;BME280;26987;59.928;30.306;2023-04-06T10:01:39;102909.84;;;3.56;97.38
41254;BME280;26987;59.928;30.306;2023-04-06T10:04:21;102903.56;;;3.57;95.30
41254;BME280;26987;59.928;30.306;2023-04-06T10:06:52;102906.44;;;3.54;95.29
41254;BME280;26987;59.928;30.306;2023-04-06T10:09:24;102911.31;;;3.60;96.02
41254;BME280;26987;59.928;30.306;2023-04-06T10:11:53;102919.19;;;3.49;95.08
41254;BME280;26987;59.928;30.306;2023-04-06T10:14:23;102911.53;;;3.57;95.81
41254;BME280;26987;59.928;30.306;2023-04-06T10:16:51;102901.69;;;3.59;95.32
41254;BME280;26987;59.928;30.306;2023-04-06T10:19:24;102913.13;;;3.73;94.40
41254;BME280;26987;59.928;30.306;2023-04-06T10:21:55;102917.16;;;3.91;94.33
41254;BME280;26987;59.928;30.306;2023-04-06T10:24:25;102912.41;;;4.08;93.40
41254;BME280;26987;59.928;30.306;2023-04-06T10:27:02;102914.72;;;4.26;92.42
41254;BME280;26987;59.928;30.306;2023-04-06T10:29:43;102878.81;;;3.96;92.69
41254;BME280;26987;59.928;30.306;2023-04-06T10:32:11;102917.06;;;4.18;93.33
41254;BME280;26987;59.928;30.306;2023-04-06T10:34:39;102917.59;;;4.23;91.50
41254;BME280;26987;59.928;30.306;2023-04-06T10:37:12;102919.94;;;4.14;91.28
41254;BME280;26987;59.928;30.306;2023-04-06T10:39:46;102912.41;;;4.08;92.95
41254;BME280;26987;59.928;30.306;2023-04-06T10:42:15;102919.44;;;4.09;91.55
41254;BME280;26987;59.928;30.306;2023-04-06T10:44:44;102920.28;;;4.10;92.16
41254;BME280;26987;59.928;30.306;2023-04-06T10:47:16;102920.91;;;4.13;91.94
41254;BME280;26987;59.928;30.306;2023-04-06T10:49:44;102921.25;;;4.09;91.68
41254;BME280;26987;59.928;30.306;2023-04-06T10:52:12;102913.59;;;4.04;92.55
41254;BME280;26987;59.928;30.306;2023-04-06T10:54:42;102905.63;;;4.04;92.22
41254;BME280;26987;59.928;30.306;2023-04-06T10:57:12;102916.91;;;4.08;92.77
41254;BME280;26987;59.928;30.306;2023-04-06T10:59:43;102918.78;;;4.19;92.24
41254;BME280;26987;59.928;30.306;2023-04-06T11:02:19;102910.88;;;4.30;92.52
41254;BME280;26987;59.928;30.306;2023-04-06T11:04:55;102905.97;;;4.37;91.98
41254;BME280;26987;59.928;30.306;2023-04-06T11:07:24;102902.25;;;4.39;90.97
41254;BME280;26987;59.928;30.306;2023-04-06T11:09:53;102883.66;;;4.39;90.89
41254;BME280;26987;59.928;30.306;2023-04-06T11:12:22;102899.81;;;4.61;90.62
41254;BME280;26987;59.928;30.306;2023-04-06T11:14:57;102897.84;;;4.76;90.33
41254;BME280;26987;59.928;30.306;2023-04-06T11:17:31;102896.19;;;4.86;89.60
41254;BME280;26987;59.928;30.306;2023-04-06T11:20:00;102896.28;;;4.85;89.04
41254;BME280;26987;59.928;30.306;2023-04-06T11:22:28;102891.09;;;4.83;89.67
41254;BME280;26987;59.928;30.306;2023-04-06T11:25:05;102889.19;;;4.97;90.08
41254;BME280;26987;59.928;30.306;2023-04-06T11:27:33;102895.28;;;5.10;88.92
41254;BME280;26987;59.928;30.306;2023-04-06T11:30:03;102886.09;;;5.26;87.86
41254;BME280;26987;59.928;30.306;2023-04-06T11:32:39;102885.16;;;5.27;87.55
41254;BME280;26987;59.928;30.306;2023-04-06T11:35:10;102886.38;;;5.34;86.98
41254;BME280;26987;59.928;30.306;2023-04-06T11:37:39;102887.47;;;5.43;86.99
41254;BME280;26987;59.928;30.306;2023-04-06T11:40:08;102892.44;;;5.48;86.46
41254;BME280;26987;59.928;30.306;2023-04-06T11:42:37;102887.22;;;5.58;86.65
41254;BME280;26987;59.928;30.306;2023-04-06T11:45:07;102888.06;;;5.70;85.73
41254;BME280;26987;59.928;30.306;2023-04-06T11:47:37;102870.03;;;5.62;85.49
41254;BME280;26987;59.928;30.306;2023-04-06T11:50:06;102859.78;;;5.57;85.23
41254;BME280;26987;59.928;30.306;2023-04-06T11:52:35;102876.44;;;5.82;84.13
41254;BME280;26987;59.928;30.306;2023-04-06T11:55:11;102886.63;;;5.88;84.37
41254;BME280;26987;59.928;30.306;2023-04-06T11:57:41;102877.31;;;5.83;84.49
41254;BME280;26987;59.928;30.306;2023-04-06T12:00:11;102874.63;;;5.94;84.24
41254;BME280;26987;59.928;30.306;2023-04-06T12:02:40;102876.22;;;6.08;83.56
41254;BME280;26987;59.928;30.306;2023-04-06T12:05:13;102874.13;;;6.23;83.28
41254;BME280;26987;59.928;30.306;2023-04-06T12:07:41;102872.00;;;6.38;82.02
41254;BME280;26987;59.928;30.306;2023-04-06T12:10:09;102872.69;;;6.52;81.91
41254;BME280;26987;59.928;30.306;2023-04-06T12:12:37;102859.00;;;6.56;80.99
41254;BME280;26987;59.928;30.306;2023-04-06T12:15:06;102880.63;;;6.63;80.18
41254;BME280;26987;59.928;30.306;2023-04-06T12:17:36;102871.06;;;6.61;79.83
41254;BME280;26987;59.928;30.306;2023-04-06T12:20:05;102859.31;;;6.63;80.29
41254;BME280;26987;59.928;30.306;2023-04-06T12:22:33;102884.97;;;6.64;78.66
41254;BME280;26987;59.928;30.306;2023-04-06T12:25:03;102871.59;;;6.54;78.74
41254;BME280;26987;59.928;30.306;2023-04-06T12:27:31;102865.19;;;6.46;79.30
41254;BME280;26987;59.928;30.306;2023-04-06T12:29:59;102866.06;;;6.35;78.79
41254;BME280;26987;59.928;30.306;2023-04-06T12:32:27;102869.34;;;6.38;79.40
41254;BME280;26987;59.928;30.306;2023-04-06T12:34:57;102865.31;;;6.44;78.95
41254;BME280;26987;59.928;30.306;2023-04-06T12:37:25;102862.78;;;6.42;78.57
41254;BME280;26987;59.928;30.306;2023-04-06T12:39:54;102857.78;;;6.49;78.98
41254;BME280;26987;59.928;30.306;2023-04-06T12:42:22;102848.19;;;6.58;77.52
41254;BME280;26987;59.928;30.306;2023-04-06T12:44:50;102833.66;;;6.51;77.27
41254;BME280;26987;59.928;30.306;2023-04-06T12:47:18;102856.50;;;6.65;76.59
41254;BME280;26987;59.928;30.306;2023-04-06T12:49:46;102859.06;;;6.66;75.91
41254;BME280;26987;59.928;30.306;2023-04-06T12:52:15;102859.78;;;6.68;75.04
41254;BME280;26987;59.928;30.306;2023-04-06T12:54:43;102848.13;;;6.69;74.05
41254;BME280;26987;59.928;30.306;2023-04-06T12:57:11;102834.72;;;6.60;74.14
41254;BME280;26987;59.928;30.306;2023-04-06T12:59:42;102851.78;;;6.68;73.09